createdAt,value
2023-02-27T00:01:46.221Z,58.41
2023-02-27T00:04:17.446Z,57.74
2023-02-27T00:06:45.309Z,58.61
2023-02-27T00:09:13.171Z,58.07
2023-02-27T00:11:43.418Z,58.72
2023-02-27T00:14:11.399Z,58.30
2023-02-27T00:16:39.181Z,58.35
2023-02-27T00:19:07.015Z,58.35
2023-02-27T00:21:36.827Z,58.42
2023-02-27T00:24:05.628Z,58.29
2023-02-27T00:26:33.495Z,58.19
2023-02-27T00:29:02.687Z,57.94
2023-02-27T00:31:31.075Z,57.83
2023-02-27T00:33:58.981Z,57.98
2023-02-27T00:36:26.789Z,58.41
2023-02-27T00:38:54.951Z,58.23
2023-02-27T00:41:22.870Z,58.08
2023-02-27T00:43:50.692Z,58.37
2023-02-27T00:46:21.034Z,58.63
2023-02-27T00:48:49.027Z,57.99
2023-02-27T00:51:16.794Z,58.27
2023-02-27T00:53:44.910Z,58.34
2023-02-27T00:56:12.700Z,58.44
2023-02-27T00:58:40.671Z,58.55
2023-02-27T01:01:08.784Z,58.49
2023-02-27T01:03:38.245Z,58.71
2023-02-27T01:06:06.641Z,58.83
2023-02-27T01:08:34.534Z,59.02
2023-02-27T01:11:02.475Z,59.03
2023-02-27T01:13:30.244Z,59.20
2023-02-27T01:15:58.418Z,59.50
2023-02-27T01:18:26.365Z,59.57
2023-02-27T01:20:56.099Z,59.88
2023-02-27T01:23:24.642Z,59.80
2023-02-27T01:25:52.508Z,59.72
2023-02-27T01:28:20.341Z,59.54
2023-02-27T01:30:48.522Z,59.29
2023-02-27T01:33:16.783Z,59.26
2023-02-27T01:35:44.534Z,59.12
2023-02-27T01:38:13.769Z,59.50
2023-02-27T01:40:42.872Z,59.17
2023-02-27T01:43:11.836Z,59.15
2023-02-27T01:45:41.495Z,58.64
2023-02-27T01:48:14.496Z,58.97
2023-02-27T01:50:48.001Z,58.96
2023-02-27T01:53:18.456Z,59.11
2023-02-27T01:55:47.381Z,58.62
2023-02-27T01:58:16.139Z,58.80
2023-02-27T02:00:44.156Z,59.25
2023-02-27T02:03:27.121Z,59.41
2023-02-27T02:05:57.528Z,59.16
2023-02-27T02:08:28.500Z,59.11
2023-02-27T02:10:57.036Z,59.14
2023-02-27T02:13:25.237Z,59.29
2023-02-27T02:16:03.399Z,59.55
2023-02-27T02:18:37.024Z,59.59
2023-02-27T02:21:38.674Z,59.85
2023-02-27T02:24:40.209Z,59.73
2023-02-27T02:27:23.940Z,60.10
2023-02-27T02:30:24.425Z,60.43
2023-02-27T02:33:51.637Z,59.93
2023-02-27T02:36:46.306Z,59.78
2023-02-27T02:39:28.188Z,59.53
2023-02-27T02:42:03.276Z,59.55
2023-02-27T02:44:38.540Z,59.06
2023-02-27T02:47:09.318Z,59.21
2023-02-27T02:49:43.698Z,59.15
2023-02-27T02:52:17.872Z,59.02
2023-02-27T02:54:50.113Z,59.09
2023-02-27T02:57:21.176Z,58.61
2023-02-27T02:59:52.422Z,58.71
2023-02-27T03:02:22.569Z,59.04
2023-02-27T03:04:53.469Z,59.29
2023-02-27T03:07:25.156Z,58.89
2023-02-27T03:09:56.794Z,58.77
2023-02-27T03:12:25.733Z,58.94
2023-02-27T03:14:57.283Z,58.72
2023-02-27T03:17:28.845Z,58.78
2023-02-27T03:19:58.925Z,58.70
2023-02-27T03:22:30.991Z,58.64
2023-02-27T03:25:02.150Z,58.87
2023-02-27T03:27:33.193Z,59.24
2023-02-27T03:30:05.022Z,59.00
2023-02-27T03:32:38.288Z,58.86
2023-02-27T03:35:07.737Z,59.32
2023-02-27T03:37:41.069Z,58.64
2023-02-27T03:40:20.898Z,58.71
2023-02-27T03:42:53.137Z,58.96
2023-02-27T03:45:25.505Z,59.13
2023-02-27T03:47:53.531Z,58.79
2023-02-27T03:50:21.363Z,58.22
2023-02-27T03:52:49.200Z,58.86
2023-02-27T03:55:19.985Z,58.67
2023-02-27T03:57:49.201Z,58.64
2023-02-27T04:00:19.739Z,59.04
2023-02-27T04:02:50.628Z,58.79
2023-02-27T04:05:19.177Z,58.69
2023-02-27T04:07:56.329Z,58.38
2023-02-27T04:10:34.337Z,59.00
2023-02-27T04:13:23.368Z,59.00
2023-02-27T04:16:17.065Z,59.00
2023-02-27T04:18:56.874Z,59.05
2023-02-27T04:21:30.085Z,58.93
2023-02-27T04:24:02.827Z,58.70
2023-02-27T04:26:34.661Z,59.01
2023-02-27T04:29:07.091Z,59.11
2023-02-27T04:31:44.678Z,58.96
2023-02-27T04:34:17.234Z,59.01
2023-02-27T04:36:47.768Z,59.15
2023-02-27T04:39:21.091Z,59.25
2023-02-27T04:41:53.490Z,58.95
2023-02-27T04:44:23.751Z,58.48
2023-02-27T04:46:52.780Z,58.86
2023-02-27T04:49:24.282Z,58.78
2023-02-27T04:51:54.989Z,58.85
2023-02-27T04:54:27.738Z,58.77
2023-02-27T04:56:59.422Z,58.14
2023-02-27T04:59:29.662Z,58.90
2023-02-27T05:01:59.994Z,58.71
2023-02-27T05:04:29.374Z,58.68
2023-02-27T05:06:57.809Z,58.36
2023-02-27T05:09:30.015Z,58.78
2023-02-27T05:12:02.288Z,58.22
2023-02-27T05:14:33.248Z,58.32
2023-02-27T05:17:05.221Z,58.41
2023-02-27T05:19:33.929Z,59.07
2023-02-27T05:22:10.643Z,58.47
2023-02-27T05:24:48.092Z,58.88
2023-02-27T05:27:25.237Z,58.84
2023-02-27T05:29:54.280Z,58.86
2023-02-27T05:32:32.041Z,58.54
2023-02-27T05:35:06.660Z,58.76
2023-02-27T05:37:37.647Z,59.05
2023-02-27T05:40:08.446Z,59.28
2023-02-27T05:42:43.418Z,58.99
2023-02-27T05:45:14.410Z,59.58
2023-02-27T05:47:47.215Z,59.95
2023-02-27T05:50:18.242Z,59.53
2023-02-27T05:52:46.780Z,60.44
2023-02-27T05:55:19.160Z,60.87
2023-02-27T05:57:52.640Z,60.32
2023-02-27T06:00:22.983Z,60.74
2023-02-27T06:02:50.922Z,61.63
2023-02-27T06:05:19.989Z,61.54
2023-02-27T06:07:47.912Z,61.25
2023-02-27T06:10:17.324Z,62.09
2023-02-27T06:12:45.115Z,61.86
2023-02-27T06:15:14.789Z,62.41
2023-02-27T06:17:42.625Z,62.61
2023-02-27T06:20:11.835Z,62.82
2023-02-27T06:22:39.582Z,62.13
2023-02-27T06:25:08.153Z,62.04
2023-02-27T06:27:35.948Z,62.29
2023-02-27T06:30:03.980Z,62.00
2023-02-27T06:32:33.084Z,61.88
2023-02-27T06:35:00.846Z,61.90
2023-02-27T06:37:28.565Z,62.24
2023-02-27T06:39:56.372Z,62.29
2023-02-27T06:42:24.117Z,61.70
2023-02-27T06:44:51.949Z,61.67
2023-02-27T06:47:19.787Z,61.17
2023-02-27T06:49:49.128Z,61.00
2023-02-27T06:52:16.952Z,61.21
2023-02-27T06:54:44.737Z,60.98
2023-02-27T06:57:12.505Z,61.31
2023-02-27T06:59:40.282Z,60.96
2023-02-27T07:02:08.581Z,60.38
2023-02-27T07:04:36.368Z,60.57
2023-02-27T07:07:34.079Z,60.16
2023-02-27T07:09:53.404Z,60.11
2023-02-27T07:12:21.189Z,60.22
2023-02-27T07:14:49.001Z,59.37
2023-02-27T07:17:16.802Z,58.89
2023-02-27T07:19:45.478Z,58.45
2023-02-27T07:22:14.626Z,58.42
2023-02-27T07:24:42.764Z,58.46
2023-02-27T07:27:10.546Z,58.04
2023-02-27T07:29:38.301Z,57.67
2023-02-27T07:32:06.205Z,57.92
2023-02-27T07:34:34.758Z,57.91
2023-02-27T07:37:02.668Z,56.50
2023-02-27T07:39:31.877Z,56.84
2023-02-27T07:42:00.111Z,56.96
2023-02-27T07:44:27.883Z,56.55
2023-02-27T07:46:55.713Z,55.49
2023-02-27T07:49:23.575Z,56.42
2023-02-27T07:51:51.556Z,55.86
2023-02-27T07:54:19.458Z,54.29
2023-02-27T07:56:48.625Z,55.60
2023-02-27T07:59:16.458Z,54.00
2023-02-27T08:01:44.246Z,54.70
2023-02-27T08:04:12.057Z,54.13
2023-02-27T08:06:39.898Z,52.96
2023-02-27T08:09:07.838Z,53.22
2023-02-27T08:11:35.632Z,54.03
2023-02-27T08:14:05.276Z,52.97
2023-02-27T08:16:33.537Z,52.44
2023-02-27T08:19:01.805Z,52.63
2023-02-27T08:21:30.892Z,52.70
2023-02-27T08:23:58.879Z,52.22
2023-02-27T08:26:27.060Z,53.52
2023-02-27T08:28:54.984Z,52.99
2023-02-27T08:31:24.372Z,51.49
2023-02-27T08:34:01.142Z,51.84
2023-02-27T08:36:36.962Z,51.16
2023-02-27T08:39:12.044Z,52.19
2023-02-27T08:41:40.360Z,51.29
2023-02-27T08:44:08.360Z,52.00
2023-02-27T08:46:37.764Z,51.38
2023-02-27T08:49:06.830Z,50.68
2023-02-27T08:51:35.258Z,49.96
2023-02-27T08:54:03.342Z,49.84
2023-02-27T08:56:33.454Z,48.85
2023-02-27T08:59:01.805Z,49.46
2023-02-27T09:01:34.398Z,49.11
2023-02-27T09:04:05.970Z,48.21
2023-02-27T09:06:35.898Z,48.61
2023-02-27T09:09:04.709Z,48.65
2023-02-27T09:11:32.906Z,48.21
2023-02-27T09:14:00.799Z,47.96
2023-02-27T09:16:29.116Z,47.51
2023-02-27T09:18:57.237Z,47.33
2023-02-27T09:21:26.704Z,46.72
2023-02-27T09:23:55.179Z,47.90
2023-02-27T09:26:39.758Z,47.98
2023-02-27T09:29:10.302Z,47.63
2023-02-27T09:31:38.485Z,47.42
2023-02-27T09:34:06.458Z,48.36
2023-02-27T09:36:42.551Z,48.51
2023-02-27T09:39:11.066Z,47.88
2023-02-27T09:41:47.649Z,48.13
2023-02-27T09:44:45.354Z,48.46
2023-02-27T09:47:17.899Z,49.05
2023-02-27T09:50:05.625Z,48.59
2023-02-27T09:52:38.228Z,48.05
2023-02-27T09:55:07.472Z,47.26
2023-02-27T09:57:43.844Z,47.00
2023-02-27T10:00:21.460Z,47.05
2023-02-27T10:02:56.819Z,47.28
2023-02-27T10:05:32.623Z,47.17
2023-02-27T10:08:07.724Z,47.54
2023-02-27T10:10:39.319Z,47.69
2023-02-27T10:13:27.010Z,47.38
2023-02-27T10:15:56.135Z,47.65
2023-02-27T10:18:30.760Z,48.75
2023-02-27T10:21:00.375Z,48.25
2023-02-27T10:23:35.292Z,47.72
2023-02-27T10:26:04.301Z,46.54
2023-02-27T10:28:33.122Z,46.14
2023-02-27T10:31:02.167Z,44.77
2023-02-27T10:33:34.464Z,45.44
2023-02-27T10:36:03.566Z,45.06
2023-02-27T10:38:39.511Z,46.01
2023-02-27T10:41:08.864Z,45.82
2023-02-27T10:43:36.756Z,45.92
2023-02-27T10:46:11.602Z,46.24
2023-02-27T10:48:39.494Z,46.44
2023-02-27T10:51:26.290Z,44.94
2023-02-27T10:54:20.347Z,44.84
2023-02-27T10:56:50.462Z,44.50
2023-02-27T10:59:20.762Z,44.25
2023-02-27T11:01:50.491Z,44.90
2023-02-27T11:04:25.883Z,44.59
2023-02-27T11:06:54.501Z,43.69
2023-02-27T11:09:25.489Z,45.06
2023-02-27T11:11:53.937Z,44.33
2023-02-27T11:14:28.032Z,44.19
2023-02-27T11:16:57.067Z,43.58
2023-02-27T11:19:30.487Z,43.34
2023-02-27T11:22:03.976Z,43.21
2023-02-27T11:24:33.897Z,43.84
2023-02-27T11:27:06.693Z,43.32
2023-02-27T11:29:35.495Z,42.94
2023-02-27T11:32:05.490Z,42.80
2023-02-27T11:34:36.325Z,43.25
2023-02-27T11:37:06.564Z,43.23
2023-02-27T11:39:41.317Z,42.57
2023-02-27T11:42:20.354Z,41.96
2023-02-27T11:44:56.045Z,42.15
2023-02-27T11:47:28.374Z,42.23
2023-02-27T11:50:09.626Z,42.95
2023-02-27T11:52:43.892Z,42.28
2023-02-27T11:55:16.015Z,41.61
2023-02-27T11:57:46.280Z,42.16
2023-02-27T12:00:19.856Z,41.62
2023-02-27T12:02:50.338Z,41.29
2023-02-27T12:05:24.207Z,41.10
2023-02-27T12:07:54.435Z,41.54
2023-02-27T12:10:26.397Z,41.62
2023-02-27T12:13:00.776Z,42.07
2023-02-27T12:15:36.085Z,41.77
2023-02-27T12:18:12.763Z,41.79
2023-02-27T12:20:45.389Z,41.26
2023-02-27T12:23:19.953Z,40.69
2023-02-27T12:25:52.868Z,40.52
2023-02-27T12:28:41.326Z,40.66
2023-02-27T12:31:22.838Z,39.16
2023-02-27T12:33:58.208Z,39.21
2023-02-27T12:36:29.756Z,39.49
2023-02-27T12:39:00.740Z,36.31
2023-02-27T12:41:39.609Z,37.70
2023-02-27T12:44:28.795Z,39.39
2023-02-27T12:47:04.478Z,38.64
2023-02-27T12:49:40.950Z,38.14
2023-02-27T12:52:22.204Z,38.18
2023-02-27T12:54:59.752Z,39.00
2023-02-27T12:57:41.767Z,41.11
2023-02-27T13:00:15.050Z,41.58
2023-02-27T13:02:53.689Z,41.69
2023-02-27T13:05:32.421Z,42.12
2023-02-27T13:08:10.101Z,41.93
2023-02-27T13:10:45.503Z,41.05
2023-02-27T13:13:19.526Z,40.66
2023-02-27T13:15:51.143Z,41.09
2023-02-27T13:18:35.198Z,38.64
2023-02-27T13:21:10.477Z,38.96
2023-02-27T13:24:01.228Z,36.82
2023-02-27T13:26:36.224Z,36.06
2023-02-27T13:29:06.667Z,34.86
2023-02-27T13:31:43.931Z,35.66
2023-02-27T13:34:18.889Z,37.53
2023-02-27T13:36:48.433Z,38.12
2023-02-27T13:39:39.815Z,38.72
2023-02-27T13:42:52.966Z,39.88
2023-02-27T13:45:54.451Z,40.98
2023-02-27T13:48:42.096Z,40.65
2023-02-27T13:51:35.902Z,39.70
2023-02-27T13:54:26.715Z,40.29
2023-02-27T13:57:10.520Z,40.46
2023-02-27T13:59:44.713Z,40.70
2023-02-27T14:02:34.416Z,39.39
2023-02-27T14:05:05.934Z,39.06
2023-02-27T14:07:37.995Z,38.18
2023-02-27T14:10:11.442Z,38.56
2023-02-27T14:12:45.728Z,36.24
2023-02-27T14:15:47.660Z,35.54
2023-02-27T14:18:53.063Z,35.31
2023-02-27T14:21:57.898Z,34.13
2023-02-27T14:24:30.123Z,34.26
2023-02-27T14:26:58.398Z,34.58
2023-02-27T14:29:31.249Z,36.13
2023-02-27T14:32:01.006Z,37.06
2023-02-27T14:34:29.234Z,37.20
2023-02-27T14:36:59.764Z,36.95
2023-02-27T14:39:29.662Z,37.62
2023-02-27T14:42:06.840Z,37.00
2023-02-27T14:44:39.727Z,38.31
2023-02-27T14:47:08.039Z,39.23
2023-02-27T14:49:36.771Z,39.58
2023-02-27T14:52:20.672Z,38.61
2023-02-27T14:54:48.678Z,38.75
2023-02-27T14:57:19.054Z,38.37
2023-02-27T14:59:48.912Z,39.00
2023-02-27T15:02:25.019Z,38.52
2023-02-27T15:04:57.130Z,38.95
2023-02-27T15:07:28.706Z,38.55
2023-02-27T15:09:58.335Z,38.80
2023-02-27T15:12:27.861Z,39.67
2023-02-27T15:14:59.411Z,39.08
2023-02-27T15:17:28.910Z,38.90
2023-02-27T15:19:58.613Z,39.48
2023-02-27T15:22:39.081Z,39.83
2023-02-27T15:25:08.539Z,40.15
2023-02-27T15:27:38.172Z,39.17
2023-02-27T15:30:07.373Z,39.58
2023-02-27T15:32:37.762Z,40.11
2023-02-27T15:35:08.237Z,39.79
2023-02-27T15:37:37.478Z,39.74
2023-02-27T15:40:08.736Z,38.90
2023-02-27T15:42:37.623Z,38.77
2023-02-27T15:45:06.755Z,39.00
2023-02-27T15:47:35.236Z,39.41
2023-02-27T15:50:11.354Z,39.72
2023-02-27T15:52:44.123Z,39.68
2023-02-27T15:55:15.590Z,40.19
2023-02-27T15:57:56.619Z,40.06
2023-02-27T16:00:31.615Z,39.98
2023-02-27T16:03:00.291Z,40.93
2023-02-27T16:05:31.237Z,40.88
2023-02-27T16:08:00.995Z,41.42
2023-02-27T16:10:31.420Z,41.90
2023-02-27T16:13:00.278Z,41.56
2023-02-27T16:15:30.713Z,42.11
2023-02-27T16:18:01.340Z,42.08
2023-02-27T16:20:48.652Z,42.12
2023-02-27T16:23:21.529Z,42.63
2023-02-27T16:26:03.832Z,42.13
2023-02-27T16:28:34.050Z,41.86
2023-02-27T16:31:02.570Z,41.84
2023-02-27T16:33:36.739Z,42.60
2023-02-27T16:36:18.946Z,42.09
2023-02-27T16:38:49.172Z,42.28
2023-02-27T16:41:19.448Z,42.26
2023-02-27T16:43:48.907Z,42.24
2023-02-27T16:46:20.428Z,42.60
2023-02-27T16:48:54.519Z,42.00
2023-02-27T16:51:24.424Z,42.26
2023-02-27T16:53:54.913Z,41.91
2023-02-27T16:56:37.321Z,42.46
2023-02-27T16:59:06.400Z,42.61
2023-02-27T17:01:34.846Z,41.70
2023-02-27T17:04:08.676Z,42.31
2023-02-27T17:06:41.513Z,41.82
2023-02-27T17:09:12.532Z,42.19
2023-02-27T17:11:40.389Z,41.55
2023-02-27T17:14:08.259Z,42.08
2023-02-27T17:16:36.418Z,41.85
2023-02-27T17:19:04.774Z,42.09
2023-02-27T17:21:34.492Z,42.98
2023-02-27T17:24:02.977Z,42.75
2023-02-27T17:26:32.426Z,42.35
2023-02-27T17:29:00.707Z,42.77
2023-02-27T17:31:28.514Z,42.56
2023-02-27T17:33:57.333Z,42.29
2023-02-27T17:36:25.356Z,42.64
2023-02-27T17:38:56.403Z,41.82
2023-02-27T17:41:24.818Z,42.56
2023-02-27T17:43:55.486Z,42.75
2023-02-27T17:46:24.091Z,42.06
2023-02-27T17:48:52.242Z,43.11
2023-02-27T17:51:20.399Z,42.33
2023-02-27T17:53:48.261Z,42.80
2023-02-27T17:56:16.321Z,43.04
2023-02-27T17:58:45.617Z,43.65
2023-02-27T18:01:20.466Z,44.33
2023-02-27T18:03:49.400Z,44.53
2023-02-27T18:06:17.595Z,44.92
2023-02-27T18:08:45.775Z,45.08
2023-02-27T18:11:16.411Z,44.62
2023-02-27T18:13:44.640Z,45.22
2023-02-27T18:16:14.158Z,45.88
2023-02-27T18:18:43.345Z,46.13
2023-02-27T18:21:13.509Z,46.03
2023-02-27T18:23:42.026Z,46.46
2023-02-27T18:26:17.141Z,46.34
2023-02-27T18:28:52.999Z,46.70
2023-02-27T18:31:23.895Z,47.67
2023-02-27T18:33:52.296Z,48.23
2023-02-27T18:36:20.232Z,47.86
2023-02-27T18:38:48.714Z,47.74
2023-02-27T18:41:16.650Z,48.45
2023-02-27T18:43:44.761Z,48.61
2023-02-27T18:46:13.784Z,48.75
2023-02-27T18:48:44.769Z,48.90
2023-02-27T18:51:14.668Z,50.18
2023-02-27T18:53:44.488Z,50.18
2023-02-27T18:56:14.281Z,49.31
2023-02-27T18:58:42.266Z,49.66
2023-02-27T19:01:22.196Z,50.11
2023-02-27T19:03:53.425Z,51.17
2023-02-27T19:06:21.582Z,51.64
2023-02-27T19:08:49.630Z,51.87
2023-02-27T19:11:24.307Z,50.65
2023-02-27T19:14:17.685Z,51.29
2023-02-27T19:16:46.419Z,52.01
2023-02-27T19:19:15.891Z,51.14
2023-02-27T19:21:44.778Z,51.81
2023-02-27T19:24:14.838Z,51.73
2023-02-27T19:26:42.922Z,52.88
2023-02-27T19:29:12.498Z,52.22
2023-02-27T19:31:40.734Z,51.73
2023-02-27T19:34:09.968Z,53.14
2023-02-27T19:36:41.208Z,52.74
2023-02-27T19:39:09.273Z,52.96
2023-02-27T19:41:37.746Z,52.73
2023-02-27T19:44:05.944Z,53.03
2023-02-27T19:46:35.726Z,52.22
2023-02-27T19:49:06.165Z,53.22
2023-02-27T19:51:34.816Z,51.99
2023-02-27T19:54:04.691Z,53.22
2023-02-27T19:56:32.753Z,52.30
2023-02-27T19:59:01.703Z,52.57
2023-02-27T20:01:32.622Z,52.24
2023-02-27T20:04:01.296Z,52.53
2023-02-27T20:06:31.542Z,53.47
2023-02-27T20:08:59.818Z,52.28
2023-02-27T20:11:34.755Z,53.74
2023-02-27T20:14:03.000Z,54.04
2023-02-27T20:16:35.514Z,53.57
2023-02-27T20:19:04.038Z,53.65
2023-02-27T20:21:33.238Z,53.37
2023-02-27T20:24:01.676Z,54.19
2023-02-27T20:26:32.967Z,53.51
2023-02-27T20:29:02.815Z,55.05
2023-02-27T20:31:33.979Z,54.90
2023-02-27T20:34:02.130Z,55.49
2023-02-27T20:36:30.592Z,55.04
2023-02-27T20:38:58.790Z,55.44
2023-02-27T20:41:29.472Z,55.26
2023-02-27T20:43:59.154Z,55.02
2023-02-27T20:46:28.769Z,55.64
2023-02-27T20:48:57.850Z,56.44
2023-02-27T20:51:27.509Z,55.36
2023-02-27T20:53:58.368Z,56.46
2023-02-27T20:56:28.220Z,55.91
2023-02-27T20:58:56.543Z,55.48
2023-02-27T21:01:26.604Z,55.60
2023-02-27T21:03:56.070Z,56.71
2023-02-27T21:06:26.101Z,55.76
2023-02-27T21:08:56.123Z,56.98
2023-02-27T21:11:27.792Z,56.28
2023-02-27T21:13:56.135Z,57.74
2023-02-27T21:16:26.216Z,57.19
2023-02-27T21:18:56.561Z,57.42
2023-02-27T21:21:26.363Z,57.70
2023-02-27T21:23:54.636Z,57.73
2023-02-27T21:26:24.247Z,57.58
2023-02-27T21:28:52.768Z,57.57
2023-02-27T21:31:23.149Z,57.90
2023-02-27T21:33:53.287Z,57.50
2023-02-27T21:36:26.545Z,57.96
2023-02-27T21:38:58.057Z,58.62
2023-02-27T21:41:26.404Z,58.84
2023-02-27T21:43:58.763Z,58.50
2023-02-27T21:46:27.072Z,57.41
2023-02-27T21:48:56.766Z,58.75
2023-02-27T21:51:38.735Z,57.79
2023-02-27T21:54:09.237Z,58.19
2023-02-27T21:56:37.387Z,57.65
2023-02-27T21:59:05.943Z,58.88
2023-02-27T22:01:36.907Z,58.38
2023-02-27T22:04:07.138Z,58.10
2023-02-27T22:06:36.207Z,58.46
2023-02-27T22:09:07.154Z,57.82
2023-02-27T22:11:36.543Z,58.26
2023-02-27T22:14:04.985Z,58.91
2023-02-27T22:16:33.183Z,58.44
2023-02-27T22:19:05.561Z,57.66
2023-02-27T22:21:35.566Z,58.82
2023-02-27T22:24:03.747Z,58.99
2023-02-27T22:26:32.497Z,58.41
2023-02-27T22:29:03.826Z,58.96
2023-02-27T22:31:34.005Z,58.43
2023-02-27T22:34:05.113Z,59.68
2023-02-27T22:36:35.826Z,59.97
2023-02-27T22:39:05.190Z,59.40
2023-02-27T22:41:34.537Z,59.88
2023-02-27T22:44:03.736Z,59.98
2023-02-27T22:46:34.553Z,59.24
2023-02-27T22:49:05.822Z,59.12
2023-02-27T22:51:35.564Z,60.17
2023-02-27T22:54:06.030Z,60.46
2023-02-27T22:56:36.407Z,59.99
2023-02-27T22:59:07.715Z,60.40
2023-02-27T23:01:37.516Z,61.15
2023-02-27T23:04:06.760Z,60.04
2023-02-27T23:06:40.395Z,60.54
2023-02-27T23:09:10.135Z,60.75
2023-02-27T23:11:38.617Z,60.96
2023-02-27T23:14:06.788Z,60.78
2023-02-27T23:16:36.127Z,61.52
2023-02-27T23:19:07.019Z,61.04
2023-02-27T23:21:37.343Z,61.63
2023-02-27T23:24:06.794Z,61.38
2023-02-27T23:26:36.418Z,61.26
2023-02-27T23:29:05.256Z,60.78
2023-02-27T23:31:35.032Z,61.45
2023-02-27T23:34:04.885Z,61.64
2023-02-27T23:36:33.442Z,61.14
2023-02-27T23:39:03.831Z,61.17
2023-02-27T23:41:32.253Z,61.88
2023-02-27T23:44:18.208Z,61.74
2023-02-27T23:46:46.189Z,62.41
2023-02-27T23:49:14.540Z,61.79
2023-02-27T23:51:42.631Z,62.66
2023-02-27T23:54:12.207Z,62.06
2023-02-27T23:56:40.576Z,61.82
2023-02-27T23:59:08.616Z,62.03
